Time;durP1;ratioP1;P1;durP2;ratioP2;P2;SDS_P1;SDS_P2;PMS_P1;PMS_P2;Temp;Humidity;BMP_temperature;BMP_pressure;BME280_temperature;BME280_humidity;BME280_pressure;Samples;Min_cycle;Max_cycle;Signal;HPM_P1;HPM_P2
2023/02/02 00:01:56;;;;;;;7.13;6.63;;;7.80;99.90;;;;;;5033324;28;20671;-65
2023/02/02 00:04:33;;;;;;;13.07;7.57;;;7.70;99.90;;;;;;5033473;28;20211;-65
2023/02/02 00:06:59;;;;;;;7.83;7.23;;;7.70;99.90;;;;;;5033078;28;20179;-66
2023/02/02 00:09:27;;;;;;;8.27;7.63;;;7.70;99.90;;;;;;5033292;28;20258;-65
2023/02/02 00:11:54;;;;;;;11.33;7.47;;;7.60;99.90;;;;;;5033132;28;20180;-65
2023/02/02 00:14:19;;;;;;;9.27;8.57;;;7.50;99.90;;;;;;5033485;28;20206;-65
2023/02/02 00:16:50;;;;;;;12.10;7.40;;;7.40;99.90;;;;;;5032990;28;20175;-65
2023/02/02 00:19:27;;;;;;;9.77;8.97;;;7.40;99.90;;;;;;5013505;28;20531;-65
2023/02/02 00:21:53;;;;;;;8.00;7.50;;;7.40;99.90;;;;;;5013767;28;20172;-65
2023/02/02 00:24:19;;;;;;;10.07;7.67;;;7.40;99.90;;;;;;5032868;28;20211;-65
2023/02/02 00:26:48;;;;;;;7.17;6.77;;;7.40;99.90;;;;;;5033076;28;20218;-64
2023/02/02 00:29:19;;;;;;;11.33;7.77;;;7.50;99.90;;;;;;5032701;28;20187;-65
2023/02/02 00:31:45;;;;;;;6.77;6.33;;;7.50;99.90;;;;;;5032953;28;20246;-65
2023/02/02 00:34:12;;;;;;;8.30;7.90;;;7.60;99.90;;;;;;5032710;28;20636;-65
2023/02/02 00:36:39;;;;;;;7.20;6.77;;;7.70;99.90;;;;;;5032644;28;20577;-65
2023/02/02 00:39:05;;;;;;;8.47;7.73;;;7.70;99.90;;;;;;5033080;28;20672;-66
2023/02/02 00:41:31;;;;;;;9.23;7.77;;;7.70;99.90;;;;;;5032481;28;20175;-66
2023/02/02 00:46:41;;;;;;;7.80;7.17;;;7.70;99.90;;;;;;5032829;28;20205;-65
2023/02/02 00:49:08;;;;;;;7.37;6.63;;;7.70;99.90;;;;;;5032299;28;20621;-65
2023/02/02 00:51:34;;;;;;;7.17;6.47;;;7.80;99.90;;;;;;5031251;28;20180;-65
2023/02/02 00:54:00;;;;;;;17.63;7.63;;;7.70;99.90;;;;;;5032435;28;20217;-65
2023/02/02 00:56:25;;;;;;;7.93;7.53;;;7.70;99.90;;;;;;5032824;28;20180;-65
2023/02/02 00:58:51;;;;;;;8.77;7.87;;;7.70;99.90;;;;;;5032393;28;20210;-65
2023/02/02 01:01:20;;;;;;;8.23;7.30;;;7.80;99.90;;;;;;5032587;28;20210;-65
2023/02/02 01:03:47;;;;;;;12.40;7.20;;;7.70;99.90;;;;;;5032530;28;20171;-65
2023/02/02 01:06:13;;;;;;;8.10;7.07;;;7.70;99.90;;;;;;5071300;23;20242;-64
2023/02/02 01:08:39;;;;;;;6.93;6.40;;;7.80;99.90;;;;;;5051445;28;20187;-64
2023/02/02 01:11:05;;;;;;;9.67;7.37;;;7.80;99.90;;;;;;5051666;28;20639;-64
2023/02/02 01:13:31;;;;;;;7.40;6.90;;;7.80;99.90;;;;;;5052310;28;20180;-64
2023/02/02 01:15:57;;;;;;;7.70;7.20;;;7.70;99.90;;;;;;5038118;28;20207;-64
2023/02/02 01:18:23;;;;;;;9.87;6.93;;;7.80;99.90;;;;;;5031964;28;20235;-65
2023/02/02 01:21:00;;;;;;;9.03;7.20;;;7.70;99.90;;;;;;5044142;28;20179;-65
2023/02/02 01:23:26;;;;;;;10.30;6.30;;;7.70;99.90;;;;;;5051925;28;20173;-65
2023/02/02 01:25:56;;;;;;;7.70;6.17;;;7.80;99.90;;;;;;5038794;28;20286;-65
2023/02/02 01:28:22;;;;;;;7.53;6.80;;;7.70;99.90;;;;;;5031962;28;20182;-64
2023/02/02 01:30:48;;;;;;;11.73;7.13;;;7.60;99.90;;;;;;5042896;28;20190;-64
2023/02/02 01:33:15;;;;;;;12.13;7.70;;;7.60;99.90;;;;;;5042628;28;20183;-64
2023/02/02 01:36:06;;;;;;;8.53;6.77;;;7.50;99.90;;;;;;5031457;28;20866;-64
2023/02/02 01:38:33;;;;;;;7.10;6.60;;;7.40;99.90;;;;;;5042345;28;20207;-64
2023/02/02 01:40:58;;;;;;;8.93;6.40;;;7.30;99.90;;;;;;5051272;28;20163;-64
2023/02/02 01:43:26;;;;;;;11.10;6.93;;;7.30;99.90;;;;;;5042159;28;20245;-64
2023/02/02 01:45:52;;;;;;;7.10;6.60;;;7.30;99.90;;;;;;5031278;28;20253;-64
2023/02/02 01:48:30;;;;;;;8.87;8.03;;;7.30;99.90;;;;;;5039205;28;20253;-64
2023/02/02 01:51:00;;;;;;;9.53;7.60;;;7.20;99.90;;;;;;5050496;28;20173;-65
2023/02/02 01:53:26;;;;;;;6.27;5.97;;;7.20;99.90;;;;;;5043062;28;20168;-64
2023/02/02 01:55:52;;;;;;;7.63;6.90;;;7.20;99.90;;;;;;5031243;28;20199;-64
2023/02/02 01:58:24;;;;;;;8.77;7.73;;;7.20;99.90;;;;;;5037734;28;20226;-64
2023/02/02 02:00:51;;;;;;;14.50;7.03;;;7.20;99.90;;;;;;5050922;28;20171;-64
2023/02/02 02:03:19;;;;;;;10.40;6.70;;;7.30;99.90;;;;;;5045215;28;20191;-64
2023/02/02 02:06:07;;;;;;;7.27;6.57;;;7.30;99.90;;;;;;5031087;28;20218;-64
2023/02/02 02:08:39;;;;;;;7.87;6.97;;;7.30;99.90;;;;;;5032568;28;20253;-64
2023/02/02 02:11:05;;;;;;;7.93;7.27;;;7.30;99.90;;;;;;5031231;28;20683;-64
2023/02/02 02:16:36;;;;;;;7.73;7.23;;;7.30;99.90;;;;;;5051516;28;20201;-64
2023/02/02 02:19:21;;;;;;;7.40;5.87;;;7.30;99.90;;;;;;5040301;28;20186;-63
2023/02/02 02:28:19;;;;;;;7.07;6.50;;;7.20;99.90;;;;;;5054988;28;20216;-65
2023/02/02 02:31:01;;;;;;;7.93;6.13;;;7.20;99.90;;;;;;5034851;28;20226;-64
2023/02/02 02:33:38;;;;;;;12.63;7.03;;;7.20;99.90;;;;;;5038873;28;20542;-64
2023/02/02 02:36:32;;;;;;;8.13;6.33;;;7.20;99.90;;;;;;5054879;28;20195;-64
2023/02/02 02:39:03;;;;;;;10.50;6.13;;;7.20;99.90;;;;;;5047146;28;20180;-64
2023/02/02 02:41:33;;;;;;;7.80;7.20;;;7.20;99.90;;;;;;5034901;28;20179;-64
2023/02/02 02:44:03;;;;;;;7.60;7.10;;;7.30;99.90;;;;;;5047872;28;20186;-64
2023/02/02 02:46:30;;;;;;;6.97;6.33;;;7.30;99.90;;;;;;5054852;28;20175;-65
2023/02/02 02:48:58;;;;;;;7.23;6.50;;;7.30;99.90;;;;;;5041152;28;20188;-64
2023/02/02 02:51:42;;;;;;;7.20;6.67;;;7.30;99.90;;;;;;5034493;28;20679;-64
2023/02/02 02:54:09;;;;;;;9.13;6.60;;;7.30;99.90;;;;;;5047903;28;20179;-64
2023/02/02 02:56:59;;;;;;;7.97;7.20;;;7.30;99.90;;;;;;5051368;28;20182;-64
2023/02/02 02:59:42;;;;;;;11.27;7.07;;;7.30;99.90;;;;;;5035362;28;20172;-64
2023/02/02 03:02:39;;;;;;;7.47;6.73;;;7.30;99.90;;;;;;5053787;28;20174;-64
2023/02/02 03:05:30;;;;;;;8.13;6.77;;;7.30;99.90;;;;;;5048005;28;20210;-64
2023/02/02 03:08:23;;;;;;;9.87;6.87;;;7.20;99.90;;;;;;5034287;28;20206;-64
2023/02/02 03:10:49;;;;;;;7.40;6.73;;;7.20;99.90;;;;;;5045505;28;20187;-65
2023/02/02 03:13:15;;;;;;;8.60;6.07;;;7.20;99.90;;;;;;5054968;28;20171;-67
2023/02/02 03:15:42;;;;;;;9.57;6.80;;;7.20;99.90;;;;;;5045389;28;20196;-69
2023/02/02 03:18:09;;;;;;;6.53;6.10;;;7.20;99.90;;;;;;5035536;28;20195;-66
2023/02/02 03:20:35;;;;;;;10.23;6.70;;;7.20;99.90;;;;;;5043617;28;20258;-67
2023/02/02 03:23:00;;;;;;;16.13;7.20;;;7.10;99.90;;;;;;5055447;28;20202;-69
2023/02/02 03:25:26;;;;;;;7.97;6.13;;;7.10;99.90;;;;;;5048149;28;20196;-67
2023/02/02 03:27:52;;;;;;;13.73;7.50;;;7.10;99.90;;;;;;5035289;28;20187;-69
2023/02/02 03:30:18;;;;;;;6.57;6.07;;;7.10;99.90;;;;;;5036451;28;20218;-67
2023/02/02 03:32:45;;;;;;;12.17;6.70;;;7.10;99.90;;;;;;5034646;28;20180;-68
2023/02/02 03:35:10;;;;;;;7.60;6.63;;;7.10;99.90;;;;;;5038721;28;20194;-67
2023/02/02 03:37:36;;;;;;;7.67;7.03;;;7.10;99.90;;;;;;5054844;28;20209;-70
2023/02/02 03:40:03;;;;;;;9.97;6.53;;;7.10;99.90;;;;;;5052372;28;20177;-69
2023/02/02 03:42:29;;;;;;;11.23;6.47;;;7.10;99.90;;;;;;5035106;28;20249;-69
2023/02/02 03:44:54;;;;;;;6.50;5.97;;;7.10;99.90;;;;;;5047438;28;20239;-68
2023/02/02 03:47:20;;;;;;;7.93;6.43;;;7.10;99.90;;;;;;5055241;28;20186;-65
2023/02/02 03:49:45;;;;;;;7.10;6.63;;;7.10;99.90;;;;;;5043519;28;20190;-70
2023/02/02 03:52:11;;;;;;;6.53;6.03;;;7.10;99.90;;;;;;5032466;28;20267;-68
2023/02/02 03:54:36;;;;;;;11.47;7.00;;;7.10;99.90;;;;;;5043752;28;20674;-69
2023/02/02 03:57:02;;;;;;;6.53;6.13;;;7.10;99.90;;;;;;5054883;28;20206;-70
2023/02/02 03:59:28;;;;;;;14.53;6.83;;;7.10;99.90;;;;;;5046047;28;20168;-68
2023/02/02 04:01:53;;;;;;;5.47;5.17;;;7.10;99.90;;;;;;5050500;28;20186;-68
2023/02/02 04:04:19;;;;;;;6.17;5.87;;;7.00;99.90;;;;;;5054765;28;20174;-68
2023/02/02 04:06:44;;;;;;;6.73;6.13;;;7.10;99.90;;;;;;5053816;28;20541;-67
2023/02/02 04:09:10;;;;;;;7.87;5.47;;;7.10;99.90;;;;;;5054416;28;20178;-67
2023/02/02 04:11:35;;;;;;;6.67;6.27;;;7.00;99.90;;;;;;5054350;28;20663;-71
2023/02/02 04:14:01;;;;;;;7.00;6.03;;;7.00;99.90;;;;;;5052896;28;20261;-67
2023/02/02 04:16:27;;;;;;;13.30;6.00;;;7.10;99.90;;;;;;5054641;28;20178;-69
2023/02/02 04:18:52;;;;;;;22.23;7.57;;;7.00;99.90;;;;;;5053472;28;20202;-68
2023/02/02 04:21:18;;;;;;;8.93;6.17;;;7.00;99.90;;;;;;5054039;28;20194;-67
2023/02/02 04:23:43;;;;;;;7.47;6.73;;;7.10;99.90;;;;;;5052460;28;20217;-68
2023/02/02 04:26:09;;;;;;;6.33;5.93;;;7.10;99.90;;;;;;5054251;28;20634;-67
2023/02/02 04:28:35;;;;;;;6.43;5.80;;;7.10;99.90;;;;;;5053164;28;20171;-69
2023/02/02 04:31:00;;;;;;;7.87;6.07;;;7.00;99.90;;;;;;5033919;28;20184;-68
2023/02/02 04:33:27;;;;;;;13.70;6.70;;;7.00;99.90;;;;;;5034363;28;20186;-67
2023/02/02 04:35:53;;;;;;;6.17;5.73;;;7.00;99.90;;;;;;5053005;28;20214;-67
2023/02/02 04:38:19;;;;;;;7.27;6.57;;;7.00;99.90;;;;;;5036994;28;20210;-67
2023/02/02 04:40:46;;;;;;;7.23;6.53;;;7.00;99.90;;;;;;5035306;28;20630;-67
2023/02/02 04:43:12;;;;;;;5.93;5.43;;;7.00;99.90;;;;;;5052972;28;20186;-70
2023/02/02 04:45:38;;;;;;;6.53;6.07;;;7.00;99.90;;;;;;5035382;28;20250;-70
2023/02/02 04:48:04;;;;;;;9.77;7.00;;;7.00;99.90;;;;;;5034007;28;20651;-69
2023/02/02 04:50:30;;;;;;;7.60;5.90;;;7.00;99.90;;;;;;5050193;28;20179;-66
2023/02/02 04:52:56;;;;;;;6.07;5.53;;;7.00;99.90;;;;;;5042064;28;20599;-66
2023/02/02 04:55:22;;;;;;;5.93;5.63;;;7.00;99.90;;;;;;5034071;28;20295;-67
2023/02/02 04:57:48;;;;;;;7.20;6.60;;;7.00;99.90;;;;;;5041765;28;20285;-68
2023/02/02 05:00:14;;;;;;;14.83;6.27;;;7.00;99.90;;;;;;5053414;28;20253;-67
2023/02/02 05:02:41;;;;;;;6.37;6.00;;;7.00;99.90;;;;;;5046228;28;20172;-67
2023/02/02 05:05:10;;;;;;;8.07;7.30;;;7.00;99.90;;;;;;5033529;28;20207;-65
2023/02/02 05:07:36;;;;;;;6.87;6.53;;;7.00;99.90;;;;;;5039010;28;20194;-66
2023/02/02 05:10:03;;;;;;;17.87;7.53;;;7.00;99.90;;;;;;5053070;28;20175;-68
2023/02/02 05:12:29;;;;;;;8.23;6.50;;;7.00;99.90;;;;;;5048570;28;20175;-70
2023/02/02 05:14:55;;;;;;;9.70;6.33;;;7.00;99.90;;;;;;5031893;28;20206;-70
2023/02/02 05:17:20;;;;;;;7.57;7.00;;;7.00;99.90;;;;;;5034274;28;20571;-67
2023/02/02 05:19:46;;;;;;;7.33;6.83;;;7.00;99.90;;;;;;5033042;28;20197;-66
2023/02/02 05:22:11;;;;;;;6.97;6.47;;;7.00;99.90;;;;;;5033930;28;20175;-66
2023/02/02 05:24:37;;;;;;;6.87;6.17;;;7.00;99.90;;;;;;5052944;28;20191;-68
2023/02/02 05:27:03;;;;;;;10.73;6.87;;;7.00;99.90;;;;;;5052655;28;20179;-66
2023/02/02 05:29:29;;;;;;;7.53;5.93;;;7.00;99.90;;;;;;5033706;28;20266;-68
2023/02/02 05:31:56;;;;;;;6.53;6.13;;;7.00;99.90;;;;;;5033168;28;20650;-68
2023/02/02 05:34:22;;;;;;;8.33;7.50;;;7.00;99.90;;;;;;5050737;28;20753;-68
2023/02/02 05:36:48;;;;;;;11.03;8.40;;;7.00;99.90;;;;;;5053055;28;20175;-68
2023/02/02 05:39:14;;;;;;;9.23;7.90;;;7.00;99.90;;;;;;5036575;28;20206;-68
2023/02/02 05:41:40;;;;;;;7.00;6.53;;;7.00;99.90;;;;;;5033005;28;20164;-67
2023/02/02 05:44:06;;;;;;;7.53;6.83;;;7.00;99.90;;;;;;5047059;28;20174;-67
2023/02/02 05:46:31;;;;;;;8.50;6.47;;;7.00;99.90;;;;;;5042852;28;20536;-67
2023/02/02 05:49:03;;;;;;;7.93;7.23;;;7.00;99.90;;;;;;5032267;28;20184;-65
2023/02/02 05:51:33;;;;;;;8.73;7.87;;;6.90;99.90;;;;;;5040147;28;20186;-64
2023/02/02 05:53:58;;;;;;;7.80;7.10;;;7.00;99.90;;;;;;5051250;28;20201;-65
2023/02/02 05:56:24;;;;;;;15.13;6.20;;;6.90;99.90;;;;;;5043161;28;20236;-65
2023/02/02 05:58:49;;;;;;;9.40;6.60;;;6.90;99.90;;;;;;5031391;28;20195;-65
2023/02/02 06:01:17;;;;;;;6.07;5.67;;;6.90;99.90;;;;;;5036968;28;20166;-65
2023/02/02 06:03:42;;;;;;;8.17;6.50;;;6.90;99.90;;;;;;5051249;28;20197;-65
2023/02/02 06:06:08;;;;;;;7.17;6.63;;;7.00;99.90;;;;;;5046369;28;20204;-65
2023/02/02 06:08:34;;;;;;;7.90;6.80;;;7.00;99.90;;;;;;5031508;28;20474;-65
2023/02/02 06:11:10;;;;;;;7.17;6.47;;;6.90;99.90;;;;;;5032436;28;20266;-65
2023/02/02 06:13:36;;;;;;;6.60;6.00;;;6.90;99.90;;;;;;5031447;28;20189;-65
2023/02/02 06:16:01;;;;;;;6.90;6.20;;;6.90;99.90;;;;;;5032097;28;20207;-65
2023/02/02 06:18:27;;;;;;;9.93;7.57;;;6.90;99.90;;;;;;5051384;28;20220;-65
2023/02/02 06:20:57;;;;;;;9.73;6.60;;;6.90;99.90;;;;;;5049898;28;20166;-65
2023/02/02 06:23:23;;;;;;;6.00;5.67;;;6.90;99.90;;;;;;5031381;28;20160;-65
2023/02/02 06:25:48;;;;;;;7.30;6.80;;;6.90;99.90;;;;;;5031174;28;20194;-65
2023/02/02 06:28:14;;;;;;;8.30;5.93;;;6.90;99.90;;;;;;5031439;28;20183;-65
2023/02/02 06:30:39;;;;;;;14.20;6.63;;;6.90;99.90;;;;;;5030985;28;20250;-65
2023/02/02 06:33:06;;;;;;;7.37;6.60;;;6.90;99.90;;;;;;5032269;28;20567;-65
2023/02/02 06:35:32;;;;;;;9.57;6.13;;;6.90;99.90;;;;;;5031220;28;20187;-65
2023/02/02 06:37:58;;;;;;;7.63;6.60;;;6.90;99.90;;;;;;5046665;28;20210;-65
2023/02/02 06:40:25;;;;;;;6.30;5.90;;;6.90;99.90;;;;;;5039074;28;20176;-65
2023/02/02 06:42:58;;;;;;;7.83;7.23;;;6.90;99.90;;;;;;5030995;28;20183;-65
2023/02/02 06:45:24;;;;;;;11.27;6.90;;;6.90;99.90;;;;;;5049590;28;20240;-65
2023/02/02 06:47:50;;;;;;;10.70;9.00;;;6.90;99.90;;;;;;5035648;28;20547;-65
2023/02/02 06:50:16;;;;;;;8.27;7.23;;;6.80;99.90;;;;;;5030869;28;20179;-65
2023/02/02 06:52:49;;;;;;;15.37;7.50;;;6.80;99.90;;;;;;5043132;28;20186;-65
2023/02/02 06:55:15;;;;;;;11.80;7.73;;;6.80;99.90;;;;;;5050862;28;20190;-65
2023/02/02 06:57:40;;;;;;;7.87;7.07;;;6.80;99.90;;;;;;5045853;28;20208;-65
2023/02/02 07:00:07;;;;;;;9.53;6.43;;;6.80;99.90;;;;;;5050363;28;20246;-65
2023/02/02 07:02:32;;;;;;;8.83;6.40;;;6.80;99.90;;;;;;5050072;28;20175;-65
2023/02/02 07:04:58;;;;;;;7.77;5.50;;;6.80;99.90;;;;;;5063400;23;20282;-64
2023/02/02 07:07:24;;;;;;;6.73;6.23;;;6.80;99.90;;;;;;5012656;28;20180;-63
2023/02/02 07:09:49;;;;;;;6.93;5.90;;;6.80;99.90;;;;;;5014204;28;20195;-63
2023/02/02 07:12:16;;;;;;;6.67;6.00;;;6.80;99.90;;;;;;5014408;28;20274;-63
2023/02/02 07:14:42;;;;;;;11.10;6.80;;;6.80;99.90;;;;;;5014395;28;20192;-63
2023/02/02 07:17:07;;;;;;;18.60;6.20;;;6.80;99.90;;;;;;5014279;28;20211;-63
2023/02/02 07:19:33;;;;;;;6.77;6.17;;;6.80;99.90;;;;;;5014293;28;20259;-63
2023/02/02 07:21:59;;;;;;;7.53;6.83;;;6.80;99.90;;;;;;5013957;28;20230;-63
2023/02/02 07:24:26;;;;;;;5.87;5.57;;;6.80;99.90;;;;;;5014534;28;20183;-64
2023/02/02 07:26:52;;;;;;;7.60;6.30;;;6.80;99.90;;;;;;5013802;28;20176;-63
2023/02/02 07:29:17;;;;;;;6.27;5.97;;;6.80;99.90;;;;;;5014032;28;20195;-63
2023/02/02 07:31:43;;;;;;;27.43;6.70;;;6.80;99.90;;;;;;5013827;28;20168;-64
2023/02/02 07:34:08;;;;;;;5.83;5.53;;;6.80;99.90;;;;;;5014084;28;20614;-63
2023/02/02 07:36:34;;;;;;;6.90;6.50;;;6.80;99.90;;;;;;5014135;28;20772;-64
2023/02/02 07:39:03;;;;;;;7.63;7.00;;;6.80;99.90;;;;;;5013540;28;20227;-63
2023/02/02 07:41:29;;;;;;;6.50;6.10;;;6.80;99.90;;;;;;5013748;28;20172;-63
2023/02/02 07:43:55;;;;;;;6.73;6.23;;;6.80;99.90;;;;;;5013498;28;20184;-64
2023/02/02 07:46:20;;;;;;;7.00;6.43;;;6.80;99.90;;;;;;5014025;28;20211;-64
2023/02/02 07:48:46;;;;;;;9.40;7.73;;;6.90;99.90;;;;;;5013662;28;20190;-63
2023/02/02 07:51:14;;;;;;;7.27;6.60;;;6.90;99.90;;;;;;5013124;28;20657;-64
2023/02/02 07:53:47;;;;;;;8.93;8.03;;;6.90;99.90;;;;;;5013690;28;20184;-63
2023/02/02 07:56:16;;;;;;;6.67;6.20;;;6.90;99.90;;;;;;5013455;28;20203;-63
2023/02/02 07:58:42;;;;;;;11.43;6.13;;;6.90;99.90;;;;;;5013455;28;20282;-63
2023/02/02 08:01:10;;;;;;;7.40;6.60;;;6.90;99.90;;;;;;5013359;28;20251;-63
2023/02/02 08:03:38;;;;;;;5.77;5.37;;;6.90;99.90;;;;;;5013559;28;20168;-63
2023/02/02 08:06:27;;;;;;;9.83;7.20;;;6.90;99.90;;;;;;5012796;28;20222;-63
2023/02/02 08:08:53;;;;;;;14.40;7.33;;;6.90;99.90;;;;;;5013398;28;20271;-63
2023/02/02 08:11:20;;;;;;;14.40;6.70;;;6.90;99.90;;;;;;5013301;28;20600;-63
2023/02/02 08:13:51;;;;;;;7.97;7.33;;;6.90;99.90;;;;;;5016133;28;20173;-63
2023/02/02 08:16:18;;;;;;;7.43;6.80;;;6.90;99.90;;;;;;5011891;28;20200;-63
2023/02/02 08:18:43;;;;;;;8.67;6.97;;;6.90;99.90;;;;;;5012957;28;20234;-63
2023/02/02 08:21:09;;;;;;;7.00;6.60;;;7.00;99.90;;;;;;5012972;28;20184;-63
2023/02/02 08:23:37;;;;;;;7.43;6.97;;;7.00;99.90;;;;;;5013373;28;20191;-63
2023/02/02 08:26:09;;;;;;;6.60;6.23;;;7.00;99.90;;;;;;5012676;28;20679;-63
2023/02/02 08:28:35;;;;;;;6.50;6.20;;;7.00;99.90;;;;;;5013556;28;20176;-63
2023/02/02 08:31:09;;;;;;;12.30;6.80;;;7.00;99.90;;;;;;5012575;28;20215;-63
2023/02/02 08:33:36;;;;;;;8.57;7.17;;;6.90;99.90;;;;;;5012970;28;20188;-64
2023/02/02 08:36:03;;;;;;;7.83;7.20;;;6.90;99.90;;;;;;5012228;28;20204;-64
2023/02/02 08:38:29;;;;;;;11.30;7.53;;;6.90;99.90;;;;;;5013147;28;20666;-64
2023/02/02 08:40:54;;;;;;;6.30;5.90;;;6.90;99.90;;;;;;5010465;28;20195;-63
2023/02/02 08:43:20;;;;;;;6.73;6.23;;;7.00;99.90;;;;;;5012951;28;20188;-64
2023/02/02 08:45:47;;;;;;;16.57;8.23;;;7.00;99.90;;;;;;5012550;28;20566;-64
2023/02/02 08:48:13;;;;;;;7.90;7.30;;;7.00;99.90;;;;;;5012784;28;20176;-64
2023/02/02 08:50:39;;;;;;;6.97;6.43;;;7.00;99.90;;;;;;5012450;28;20175;-63
2023/02/02 08:53:04;;;;;;;10.60;9.53;;;7.00;99.90;;;;;;5012271;28;20707;-63
2023/02/02 08:55:30;;;;;;;8.07;7.40;;;7.00;99.90;;;;;;5012558;28;20535;-64
2023/02/02 08:57:55;;;;;;;7.30;6.77;;;7.00;99.90;;;;;;5012300;28;20212;-64
2023/02/02 09:00:21;;;;;;;11.03;8.20;;;7.00;99.90;;;;;;5012097;28;20176;-64
2023/02/02 09:02:50;;;;;;;7.50;6.90;;;7.00;99.90;;;;;;5011571;28;20183;-64
2023/02/02 09:05:16;;;;;;;8.53;7.37;;;7.00;99.90;;;;;;5012379;28;20207;-64
2023/02/02 09:07:41;;;;;;;9.03;8.20;;;7.40;99.90;;;;;;5012325;28;20184;-63
2023/02/02 09:10:08;;;;;;;8.20;7.60;;;7.10;99.90;;;;;;5012041;28;20607;-64
2023/02/02 09:12:33;;;;;;;10.60;7.87;;;7.10;99.90;;;;;;5012244;28;20184;-64
2023/02/02 09:14:59;;;;;;;10.50;7.73;;;7.10;99.90;;;;;;5012334;28;20295;-63
2023/02/02 09:17:24;;;;;;;8.43;7.60;;;7.10;99.90;;;;;;5012049;28;20207;-63
2023/02/02 09:19:50;;;;;;;11.03;6.47;;;7.10;99.90;;;;;;5011177;28;20242;-63
2023/02/02 09:22:15;;;;;;;11.27;8.70;;;7.20;99.90;;;;;;5011985;28;20176;-63
2023/02/02 09:24:41;;;;;;;8.47;7.63;;;7.20;99.90;;;;;;5011727;28;20250;-64
2023/02/02 09:27:07;;;;;;;8.30;7.57;;;7.20;99.90;;;;;;5012155;28;20617;-64
2023/02/02 09:29:32;;;;;;;11.67;7.10;;;7.20;99.90;;;;;;5011182;28;20191;-64
2023/02/02 09:31:58;;;;;;;10.70;8.63;;;7.20;99.90;;;;;;5012059;28;20266;-64
2023/02/02 09:34:23;;;;;;;8.07;7.47;;;7.20;99.90;;;;;;5011863;28;20191;-64
2023/02/02 09:36:50;;;;;;;8.73;7.93;;;7.20;99.90;;;;;;5012024;28;20381;-64
2023/02/02 09:39:18;;;;;;;8.90;7.50;;;7.20;99.90;;;;;;5011498;28;20180;-63
2023/02/02 09:42:13;;;;;;;7.67;7.17;;;7.20;99.90;;;;;;5011729;28;20190;-64
2023/02/02 09:44:45;;;;;;;7.87;7.43;;;7.20;99.90;;;;;;5011471;28;20176;-64
2023/02/02 09:47:24;;;;;;;9.57;8.43;;;7.20;99.90;;;;;;5011987;28;20267;-64
2023/02/02 09:50:04;;;;;;;9.50;8.57;;;7.20;99.90;;;;;;5011515;28;20830;-64
2023/02/02 09:52:37;;;;;;;13.07;7.67;;;7.20;99.90;;;;;;5011775;28;20645;-64
2023/02/02 09:55:31;;;;;;;10.40;9.50;;;7.20;99.90;;;;;;5010038;28;20571;-64
2023/02/02 09:58:18;;;;;;;8.33;7.83;;;7.20;99.90;;;;;;5011834;28;20775;-63
2023/02/02 10:01:08;;;;;;;8.90;8.13;;;7.20;99.90;;;;;;5011453;28;20182;-64
2023/02/02 10:03:49;;;;;;;13.20;8.07;;;7.10;99.90;;;;;;5012170;28;20172;-64
2023/02/02 10:06:32;;;;;;;9.27;7.80;;;7.20;99.90;;;;;;4992073;28;20208;-63
2023/02/02 10:09:17;;;;;;;9.83;8.00;;;7.20;99.90;;;;;;4993492;28;20181;-64
2023/02/02 10:12:11;;;;;;;10.17;8.43;;;7.30;99.90;;;;;;5011677;28;20176;-63
2023/02/02 10:14:51;;;;;;;13.07;9.47;;;7.30;99.90;;;;;;5011521;28;20262;-64
2023/02/02 10:17:24;;;;;;;9.27;8.57;;;7.30;99.90;;;;;;5011660;28;20200;-64
2023/02/02 10:19:54;;;;;;;13.10;8.67;;;7.30;99.90;;;;;;5009338;28;20191;-64
2023/02/02 10:22:26;;;;;;;10.20;9.50;;;7.30;99.90;;;;;;5011220;28;20172;-64
2023/02/02 10:24:51;;;;;;;9.63;8.27;;;7.40;99.90;;;;;;5011319;28;20280;-64
2023/02/02 10:27:39;;;;;;;9.97;8.93;;;7.40;99.90;;;;;;5011536;28;20740;-63
2023/02/02 10:30:35;;;;;;;8.27;7.50;;;7.40;99.90;;;;;;5011306;28;20176;-64
2023/02/02 10:33:19;;;;;;;7.57;7.03;;;7.30;99.90;;;;;;5004693;28;20192;-64
2023/02/02 10:35:52;;;;;;;7.77;7.17;;;7.40;99.90;;;;;;5011129;28;20207;-63
2023/02/02 10:38:38;;;;;;;10.00;9.13;;;7.40;99.90;;;;;;5011342;28;20231;-63
2023/02/02 10:41:50;;;;;;;12.70;8.80;;;7.30;99.90;;;;;;5011309;28;20461;-63
2023/02/02 10:44:20;;;;;;;8.73;7.83;;;7.40;99.90;;;;;;4993299;28;20173;-64
2023/02/02 10:46:50;;;;;;;7.73;7.10;;;7.40;99.90;;;;;;5012897;28;20764;-64
2023/02/02 10:49:31;;;;;;;8.87;7.97;;;7.40;99.90;;;;;;5015080;28;20164;-63
2023/02/02 10:52:16;;;;;;;10.30;7.97;;;7.50;99.90;;;;;;5014137;28;20168;-63
2023/02/02 10:54:42;;;;;;;10.73;9.73;;;7.50;99.90;;;;;;5015065;28;20680;-64
2023/02/02 10:57:11;;;;;;;8.00;7.50;;;7.50;99.90;;;;;;5015206;28;20230;-64
2023/02/02 11:00:01;;;;;;;10.10;8.27;;;7.60;99.90;;;;;;5014835;28;20618;-64
2023/02/02 11:02:27;;;;;;;9.80;8.87;;;7.60;99.90;;;;;;5014533;28;20179;-63
2023/02/02 11:07:36;;;;;;;13.37;8.97;;;7.60;99.90;;;;;;5015055;28;20206;-64
2023/02/02 11:10:02;;;;;;;8.63;7.93;;;7.70;99.90;;;;;;5014642;28;20600;-64
2023/02/02 11:12:32;;;;;;;8.87;8.17;;;7.70;99.90;;;;;;5014892;28;20660;-63
2023/02/02 11:15:08;;;;;;;8.33;7.73;;;7.80;99.90;;;;;;5015046;28;20282;-65
2023/02/02 11:17:34;;;;;;;7.10;6.60;;;7.80;99.90;;;;;;5014838;28;20191;-65
2023/02/02 11:20:00;;;;;;;6.30;6.00;;;7.90;99.90;;;;;;5014334;28;20626;-63
2023/02/02 11:22:29;;;;;;;8.37;7.67;;;8.00;99.90;;;;;;5014652;28;20176;-63
2023/02/02 11:24:56;;;;;;;8.80;8.07;;;8.00;99.90;;;;;;5014821;28;20196;-64
2023/02/02 11:27:26;;;;;;;9.27;7.53;;;8.10;99.90;;;;;;5014836;28;20169;-64
2023/02/02 11:29:53;;;;;;;25.17;7.83;;;8.20;99.90;;;;;;5014288;28;20183;-63
2023/02/02 11:32:31;;;;;;;7.07;6.47;;;8.20;99.90;;;;;;5014445;28;20176;-63
2023/02/02 11:35:03;;;;;;;7.07;6.37;;;8.20;99.90;;;;;;5014474;28;20191;-63
2023/02/02 11:37:50;;;;;;;11.23;7.40;;;8.20;99.90;;;;;;5014165;28;20196;-63
2023/02/02 11:40:25;;;;;;;9.57;8.30;;;8.30;99.90;;;;;;5013897;28;20183;-63
2023/02/02 11:42:51;;;;;;;9.67;8.33;;;8.40;99.90;;;;;;5014172;28;20168;-64
2023/02/02 11:45:28;;;;;;;8.63;7.97;;;8.40;99.90;;;;;;5014117;28;20195;-64
2023/02/02 11:48:01;;;;;;;9.87;7.83;;;8.40;99.90;;;;;;5014062;28;20524;-63
2023/02/02 11:50:27;;;;;;;10.43;6.83;;;8.50;99.90;;;;;;5013871;28;20596;-62
2023/02/02 11:52:54;;;;;;;21.53;7.50;;;8.50;99.90;;;;;;5012969;28;20179;-64
2023/02/02 11:55:26;;;;;;;8.97;8.20;;;8.50;99.90;;;;;;5013876;28;20203;-64
2023/02/02 11:58:18;;;;;;;10.77;8.30;;;8.60;99.90;;;;;;5013841;28;20196;-63
2023/02/02 12:00:54;;;;;;;15.40;7.70;;;8.60;99.90;;;;;;5010496;28;20204;-64
2023/02/02 12:03:38;;;;;;;7.73;7.13;;;8.70;99.90;;;;;;5014174;28;20191;-64
2023/02/02 12:06:22;;;;;;;13.30;7.03;;;8.80;99.90;;;;;;5013521;28;20233;-63
2023/02/02 12:08:48;;;;;;;8.13;7.50;;;8.80;99.90;;;;;;5013735;28;20177;-64
2023/02/02 12:11:42;;;;;;;11.00;8.67;;;8.80;99.90;;;;;;5013479;28;20207;-63
2023/02/02 12:14:28;;;;;;;8.73;7.47;;;8.80;99.90;;;;;;5012065;28;20188;-63
2023/02/02 12:17:12;;;;;;;8.63;7.90;;;8.80;99.90;;;;;;5013370;28;20187;-63
2023/02/02 12:19:41;;;;;;;9.13;7.93;;;8.80;99.90;;;;;;5012436;28;20199;-63
2023/02/02 12:22:35;;;;;;;7.90;7.50;;;8.80;99.90;;;;;;5012858;28;20668;-63
2023/02/02 12:25:31;;;;;;;14.53;9.53;;;8.90;99.90;;;;;;5013256;28;20203;-63
2023/02/02 12:28:23;;;;;;;9.40;8.53;;;9.00;99.90;;;;;;5013093;28;20226;-63
2023/02/02 12:31:16;;;;;;;7.60;6.90;;;9.00;99.90;;;;;;5012246;28;20172;-64
2023/02/02 12:34:00;;;;;;;7.27;6.77;;;9.00;99.90;;;;;;5012811;28;20539;-63
2023/02/02 12:36:41;;;;;;;12.37;6.90;;;9.00;99.90;;;;;;5010714;28;20203;-63
2023/02/02 12:39:19;;;;;;;7.00;6.33;;;9.00;99.90;;;;;;5012499;28;20203;-63
2023/02/02 12:41:56;;;;;;;8.33;6.77;;;9.10;99.90;;;;;;5012595;28;20692;-63
2023/02/02 12:44:42;;;;;;;7.47;7.07;;;9.10;99.90;;;;;;5012529;28;20175;-63
2023/02/02 12:47:16;;;;;;;7.40;6.60;;;9.00;99.90;;;;;;5001424;28;20223;-63
2023/02/02 12:49:57;;;;;;;7.03;6.33;;;9.00;99.90;;;;;;5012063;28;20531;-63
2023/02/02 12:52:47;;;;;;;7.67;7.07;;;9.00;99.90;;;;;;5012634;28;20198;-63
2023/02/02 12:55:42;;;;;;;7.57;6.90;;;9.00;99.90;;;;;;5012405;28;20697;-63
2023/02/02 12:58:36;;;;;;;7.33;6.93;;;9.00;99.90;;;;;;5012485;28;20203;-63
2023/02/02 13:01:29;;;;;;;8.93;6.63;;;9.00;99.90;;;;;;4999501;28;20173;-63
2023/02/02 13:04:13;;;;;;;7.10;6.60;;;9.00;99.90;;;;;;5011716;28;20204;-63
2023/02/02 13:07:19;;;;;;;9.70;6.27;;;8.90;99.90;;;;;;5011234;28;20536;-63
2023/02/02 13:10:10;;;;;;;8.63;8.13;;;8.90;99.90;;;;;;5008848;28;20195;-63
2023/02/02 13:12:44;;;;;;;7.40;6.90;;;9.00;99.90;;;;;;5012315;28;20537;-64
2023/02/02 13:15:18;;;;;;;13.43;7.47;;;9.10;99.90;;;;;;5011780;28;20200;-63
2023/02/02 13:17:53;;;;;;;7.20;6.67;;;9.20;99.90;;;;;;5012077;28;20195;-63
2023/02/02 13:20:31;;;;;;;6.87;6.13;;;9.20;99.90;;;;;;5011767;28;20229;-63
2023/02/02 13:23:03;;;;;;;6.80;6.27;;;9.20;99.90;;;;;;4992495;28;20668;-63
2023/02/02 13:25:39;;;;;;;7.10;6.40;;;9.20;99.90;;;;;;4992497;28;20192;-63
2023/02/02 13:28:14;;;;;;;7.47;5.77;;;9.20;99.90;;;;;;4992679;28;20595;-63
2023/02/02 13:30:40;;;;;;;5.67;5.33;;;9.30;99.90;;;;;;4992160;28;20183;-63